North Dighton, Massachusetts
Current Conditions -  °F | °C
As of 4:52 AM on Saturday 29 Nov 2014 (Local Time) from KTAN Reporting Station
Clear Clear  
Wind Chill: -7°   Ceiling: Unl
Heat Index: -7°   Visibility: 10mi
Dew Point: -9°   Wind: 0mph
Humidity: 85%   Direction: NA
Pressure: 30.27"   Gusts: NA
Location:  41.86°N, 71.12°W
Report Text: KTAN 290952Z AUTO 00000KT 10SM CLR M07/M09 A3027 RMK AO2 SLP252 I1000 T10721094
Loading
Personal Weather Stations






























Interactive Weather Map New forecast layout! Learn more

10-Day Weather Forecast

Advertisements
Track Severe Weather on mobile